sensor_id;sensor_type;location;lat;lon;timestamp;P1;durP1;ratioP1;P2;durP2;ratioP2
75971;SDS011;64651;47.540;19.088;2023-03-01T00:04:49;28.08;;;12.68;;
75971;SDS011;64651;47.540;19.088;2023-03-01T00:09:51;28.15;;;12.45;;
75971;SDS011;64651;47.540;19.088;2023-03-01T00:14:53;26.70;;;12.23;;
75971;SDS011;64651;47.540;19.088;2023-03-01T00:19:55;32.70;;;13.45;;
75971;SDS011;64651;47.540;19.088;2023-03-01T00:24:58;27.37;;;11.77;;
75971;SDS011;64651;47.540;19.088;2023-03-01T00:30:00;25.12;;;10.98;;
75971;SDS011;64651;47.540;19.088;2023-03-01T00:35:02;23.98;;;10.20;;
75971;SDS011;64651;47.540;19.088;2023-03-01T00:40:05;23.33;;;10.17;;
75971;SDS011;64651;47.540;19.088;2023-03-01T00:45:08;22.27;;;9.48;;
75971;SDS011;64651;47.540;19.088;2023-03-01T00:50:11;22.73;;;9.47;;
75971;SDS011;64651;47.540;19.088;2023-03-01T00:55:13;21.77;;;9.43;;
75971;SDS011;64651;47.540;19.088;2023-03-01T01:00:15;23.42;;;9.23;;
75971;SDS011;64651;47.540;19.088;2023-03-01T01:05:18;20.10;;;9.17;;
75971;SDS011;64651;47.540;19.088;2023-03-01T01:10:22;20.67;;;8.80;;
75971;SDS011;64651;47.540;19.088;2023-03-01T01:15:24;19.47;;;8.90;;
75971;SDS011;64651;47.540;19.088;2023-03-01T01:20:26;20.77;;;8.48;;
75971;SDS011;64651;47.540;19.088;2023-03-01T01:25:29;18.83;;;8.77;;
75971;SDS011;64651;47.540;19.088;2023-03-01T01:30:31;19.47;;;8.47;;
75971;SDS011;64651;47.540;19.088;2023-03-01T01:35:33;19.35;;;7.72;;
75971;SDS011;64651;47.540;19.088;2023-03-01T01:40:42;19.77;;;8.50;;
75971;SDS011;64651;47.540;19.088;2023-03-01T01:45:45;20.37;;;8.32;;
75971;SDS011;64651;47.540;19.088;2023-03-01T01:50:50;19.00;;;8.35;;
75971;SDS011;64651;47.540;19.088;2023-03-01T01:55:58;21.20;;;8.63;;
75971;SDS011;64651;47.540;19.088;2023-03-01T02:01:03;19.73;;;8.50;;
75971;SDS011;64651;47.540;19.088;2023-03-01T02:06:07;21.97;;;8.67;;
75971;SDS011;64651;47.540;19.088;2023-03-01T02:11:33;19.77;;;9.25;;
75971;SDS011;64651;47.540;19.088;2023-03-01T02:16:35;19.90;;;8.13;;
75971;SDS011;64651;47.540;19.088;2023-03-01T02:26:51;19.48;;;8.63;;
75971;SDS011;64651;47.540;19.088;2023-03-01T02:31:56;24.30;;;9.40;;
75971;SDS011;64651;47.540;19.088;2023-03-01T02:37:03;22.67;;;9.20;;
75971;SDS011;64651;47.540;19.088;2023-03-01T02:42:11;22.70;;;9.75;;
75971;SDS011;64651;47.540;19.088;2023-03-01T02:47:16;25.07;;;9.47;;
75971;SDS011;64651;47.540;19.088;2023-03-01T02:57:44;21.33;;;9.47;;
75971;SDS011;64651;47.540;19.088;2023-03-01T03:02:51;21.20;;;8.95;;
75971;SDS011;64651;47.540;19.088;2023-03-01T03:07:55;20.90;;;8.73;;
75971;SDS011;64651;47.540;19.088;2023-03-01T03:12:59;21.37;;;9.60;;
75971;SDS011;64651;47.540;19.088;2023-03-01T03:18:07;20.55;;;8.77;;
75971;SDS011;64651;47.540;19.088;2023-03-01T03:23:11;22.00;;;8.93;;
75971;SDS011;64651;47.540;19.088;2023-03-01T03:28:13;20.70;;;9.23;;
75971;SDS011;64651;47.540;19.088;2023-03-01T03:33:17;20.15;;;8.63;;
75971;SDS011;64651;47.540;19.088;2023-03-01T03:38:19;19.90;;;8.97;;
75971;SDS011;64651;47.540;19.088;2023-03-01T03:43:23;19.90;;;8.82;;
75971;SDS011;64651;47.540;19.088;2023-03-01T03:48:26;22.07;;;9.30;;
75971;SDS011;64651;47.540;19.088;2023-03-01T03:53:30;22.77;;;9.75;;
75971;SDS011;64651;47.540;19.088;2023-03-01T03:58:33;19.87;;;8.48;;
75971;SDS011;64651;47.540;19.088;2023-03-01T04:03:35;21.03;;;9.17;;
75971;SDS011;64651;47.540;19.088;2023-03-01T04:08:37;20.90;;;9.13;;
75971;SDS011;64651;47.540;19.088;2023-03-01T04:13:39;23.80;;;10.77;;
75971;SDS011;64651;47.540;19.088;2023-03-01T04:18:42;22.73;;;10.10;;
75971;SDS011;64651;47.540;19.088;2023-03-01T04:23:44;20.42;;;9.18;;
75971;SDS011;64651;47.540;19.088;2023-03-01T04:28:46;19.87;;;8.47;;
75971;SDS011;64651;47.540;19.088;2023-03-01T04:33:50;18.62;;;8.60;;
75971;SDS011;64651;47.540;19.088;2023-03-01T04:38:54;20.00;;;9.57;;
75971;SDS011;64651;47.540;19.088;2023-03-01T04:43:57;21.48;;;9.68;;
75971;SDS011;64651;47.540;19.088;2023-03-01T04:49:02;23.05;;;10.20;;
75971;SDS011;64651;47.540;19.088;2023-03-01T04:54:05;23.17;;;9.33;;
75971;SDS011;64651;47.540;19.088;2023-03-01T04:59:10;21.05;;;8.75;;
75971;SDS011;64651;47.540;19.088;2023-03-01T05:04:14;22.13;;;9.27;;
75971;SDS011;64651;47.540;19.088;2023-03-01T05:09:16;20.33;;;9.43;;
75971;SDS011;64651;47.540;19.088;2023-03-01T05:14:18;22.77;;;9.10;;
75971;SDS011;64651;47.540;19.088;2023-03-01T05:19:21;21.67;;;9.00;;
75971;SDS011;64651;47.540;19.088;2023-03-01T05:24:24;20.95;;;9.25;;
75971;SDS011;64651;47.540;19.088;2023-03-01T05:29:27;22.90;;;9.10;;
75971;SDS011;64651;47.540;19.088;2023-03-01T05:34:32;32.38;;;12.60;;
75971;SDS011;64651;47.540;19.088;2023-03-01T05:39:37;25.00;;;9.23;;
75971;SDS011;64651;47.540;19.088;2023-03-01T05:44:39;20.37;;;8.17;;
75971;SDS011;64651;47.540;19.088;2023-03-01T05:49:41;22.65;;;8.75;;
75971;SDS011;64651;47.540;19.088;2023-03-01T05:54:43;22.63;;;8.60;;
75971;SDS011;64651;47.540;19.088;2023-03-01T05:59:45;23.08;;;8.90;;
75971;SDS011;64651;47.540;19.088;2023-03-01T06:04:47;21.10;;;8.93;;
75971;SDS011;64651;47.540;19.088;2023-03-01T06:09:49;22.83;;;8.90;;
75971;SDS011;64651;47.540;19.088;2023-03-01T06:14:52;20.45;;;8.43;;
75971;SDS011;64651;47.540;19.088;2023-03-01T06:19:54;24.53;;;10.37;;
75971;SDS011;64651;47.540;19.088;2023-03-01T06:24:56;22.20;;;9.38;;
75971;SDS011;64651;47.540;19.088;2023-03-01T06:29:58;18.35;;;8.15;;
75971;SDS011;64651;47.540;19.088;2023-03-01T06:35:01;20.70;;;9.17;;
75971;SDS011;64651;47.540;19.088;2023-03-01T06:40:03;20.40;;;8.73;;
75971;SDS011;64651;47.540;19.088;2023-03-01T06:45:10;18.80;;;8.30;;
75971;SDS011;64651;47.540;19.088;2023-03-01T06:50:13;21.67;;;8.85;;
75971;SDS011;64651;47.540;19.088;2023-03-01T06:55:16;20.98;;;8.30;;
75971;SDS011;64651;47.540;19.088;2023-03-01T07:00:18;21.10;;;8.63;;
75971;SDS011;64651;47.540;19.088;2023-03-01T07:05:21;21.55;;;9.35;;
75971;SDS011;64651;47.540;19.088;2023-03-01T07:10:23;20.90;;;9.17;;
75971;SDS011;64651;47.540;19.088;2023-03-01T07:15:26;19.48;;;8.40;;
75971;SDS011;64651;47.540;19.088;2023-03-01T07:20:28;21.45;;;9.07;;
75971;SDS011;64651;47.540;19.088;2023-03-01T07:25:31;21.33;;;9.00;;
75971;SDS011;64651;47.540;19.088;2023-03-01T07:30:33;22.15;;;9.45;;
75971;SDS011;64651;47.540;19.088;2023-03-01T07:35:36;21.70;;;9.70;;
75971;SDS011;64651;47.540;19.088;2023-03-01T07:40:38;28.83;;;11.55;;
75971;SDS011;64651;47.540;19.088;2023-03-01T07:45:40;23.95;;;11.25;;
75971;SDS011;64651;47.540;19.088;2023-03-01T07:50:42;23.80;;;10.73;;
75971;SDS011;64651;47.540;19.088;2023-03-01T07:55:44;24.65;;;9.93;;
75971;SDS011;64651;47.540;19.088;2023-03-01T08:00:49;24.77;;;10.20;;
75971;SDS011;64651;47.540;19.088;2023-03-01T08:05:51;21.73;;;9.85;;
75971;SDS011;64651;47.540;19.088;2023-03-01T08:10:56;21.17;;;9.95;;
75971;SDS011;64651;47.540;19.088;2023-03-01T08:16:01;21.97;;;10.13;;
75971;SDS011;64651;47.540;19.088;2023-03-01T08:21:08;21.15;;;10.45;;
75971;SDS011;64651;47.540;19.088;2023-03-01T08:26:16;21.40;;;9.57;;
75971;SDS011;64651;47.540;19.088;2023-03-01T08:31:21;22.42;;;9.93;;
75971;SDS011;64651;47.540;19.088;2023-03-01T08:36:26;17.45;;;8.23;;
75971;SDS011;64651;47.540;19.088;2023-03-01T08:41:30;18.43;;;8.80;;
75971;SDS011;64651;47.540;19.088;2023-03-01T08:46:34;20.62;;;8.85;;
75971;SDS011;64651;47.540;19.088;2023-03-01T08:51:38;19.17;;;8.50;;
75971;SDS011;64651;47.540;19.088;2023-03-01T08:56:41;21.08;;;9.15;;
75971;SDS011;64651;47.540;19.088;2023-03-01T09:01:43;21.87;;;9.23;;
75971;SDS011;64651;47.540;19.088;2023-03-01T09:06:45;18.03;;;8.80;;
75971;SDS011;64651;47.540;19.088;2023-03-01T09:11:47;18.87;;;8.93;;
75971;SDS011;64651;47.540;19.088;2023-03-01T09:16:51;18.77;;;9.77;;
75971;SDS011;64651;47.540;19.088;2023-03-01T09:21:54;19.67;;;9.80;;
75971;SDS011;64651;47.540;19.088;2023-03-01T09:26:57;18.58;;;9.43;;
75971;SDS011;64651;47.540;19.088;2023-03-01T09:32:02;20.70;;;10.87;;
75971;SDS011;64651;47.540;19.088;2023-03-01T09:37:04;18.92;;;10.38;;
75971;SDS011;64651;47.540;19.088;2023-03-01T09:42:11;18.70;;;10.00;;
75971;SDS011;64651;47.540;19.088;2023-03-01T09:47:38;20.52;;;10.93;;
75971;SDS011;64651;47.540;19.088;2023-03-01T09:57:48;17.93;;;10.17;;
75971;SDS011;64651;47.540;19.088;2023-03-01T10:18:58;18.67;;;10.10;;
75971;SDS011;64651;47.540;19.088;2023-03-01T10:24:10;20.93;;;13.03;;
75971;SDS011;64651;47.540;19.088;2023-03-01T10:29:17;18.48;;;12.07;;
75971;SDS011;64651;47.540;19.088;2023-03-01T10:34:33;18.17;;;12.10;;
75971;SDS011;64651;47.540;19.088;2023-03-01T10:39:37;18.67;;;12.75;;
75971;SDS011;64651;47.540;19.088;2023-03-01T10:44:57;21.55;;;12.88;;
75971;SDS011;64651;47.540;19.088;2023-03-01T10:50:01;19.47;;;13.17;;
75971;SDS011;64651;47.540;19.088;2023-03-01T11:00:29;18.80;;;14.23;;
75971;SDS011;64651;47.540;19.088;2023-03-01T11:05:31;18.08;;;14.13;;
75971;SDS011;64651;47.540;19.088;2023-03-01T11:10:35;18.90;;;14.40;;
75971;SDS011;64651;47.540;19.088;2023-03-01T11:15:41;19.30;;;13.27;;
75971;SDS011;64651;47.540;19.088;2023-03-01T11:20:43;19.62;;;14.52;;
75971;SDS011;64651;47.540;19.088;2023-03-01T11:25:48;19.67;;;12.47;;
75971;SDS011;64651;47.540;19.088;2023-03-01T11:31:06;18.45;;;12.50;;
75971;SDS011;64651;47.540;19.088;2023-03-01T11:36:35;17.15;;;11.75;;
75971;SDS011;64651;47.540;19.088;2023-03-01T11:41:50;18.07;;;12.47;;
75971;SDS011;64651;47.540;19.088;2023-03-01T11:47:16;16.62;;;11.35;;
75971;SDS011;64651;47.540;19.088;2023-03-01T12:03:04;16.05;;;10.90;;
75971;SDS011;64651;47.540;19.088;2023-03-01T12:08:14;17.60;;;10.93;;
75971;SDS011;64651;47.540;19.088;2023-03-01T12:24:12;14.30;;;9.35;;
75971;SDS011;64651;47.540;19.088;2023-03-01T12:35:12;15.23;;;9.00;;
75971;SDS011;64651;47.540;19.088;2023-03-01T12:40:23;16.12;;;8.95;;
75971;SDS011;64651;47.540;19.088;2023-03-01T12:51:18;15.57;;;8.18;;
75971;SDS011;64651;47.540;19.088;2023-03-01T12:56:32;17.02;;;8.02;;
75971;SDS011;64651;47.540;19.088;2023-03-01T13:01:41;14.00;;;8.63;;
75971;SDS011;64651;47.540;19.088;2023-03-01T13:17:47;11.40;;;7.07;;
75971;SDS011;64651;47.540;19.088;2023-03-01T13:28:35;10.60;;;5.83;;
75971;SDS011;64651;47.540;19.088;2023-03-01T13:33:44;11.43;;;6.75;;
75971;SDS011;64651;47.540;19.088;2023-03-01T13:44:40;9.52;;;6.22;;
75971;SDS011;64651;47.540;19.088;2023-03-01T13:49:48;10.23;;;6.15;;
75971;SDS011;64651;47.540;19.088;2023-03-01T13:54:52;13.47;;;6.47;;
75971;SDS011;64651;47.540;19.088;2023-03-01T13:59:55;11.20;;;7.10;;
75971;SDS011;64651;47.540;19.088;2023-03-01T14:04:58;11.70;;;6.63;;
75971;SDS011;64651;47.540;19.088;2023-03-01T14:10:02;10.48;;;6.40;;
75971;SDS011;64651;47.540;19.088;2023-03-01T14:15:15;11.45;;;6.53;;
75971;SDS011;64651;47.540;19.088;2023-03-01T14:20:32;13.67;;;7.10;;
75971;SDS011;64651;47.540;19.088;2023-03-01T14:25:46;12.13;;;7.10;;
75971;SDS011;64651;47.540;19.088;2023-03-01T14:30:57;11.57;;;6.93;;
75971;SDS011;64651;47.540;19.088;2023-03-01T14:36:05;12.80;;;6.90;;
75971;SDS011;64651;47.540;19.088;2023-03-01T14:41:14;10.98;;;6.00;;
75971;SDS011;64651;47.540;19.088;2023-03-01T14:51:39;12.48;;;5.72;;
75971;SDS011;64651;47.540;19.088;2023-03-01T14:56:44;12.03;;;6.30;;
75971;SDS011;64651;47.540;19.088;2023-03-01T15:01:48;11.95;;;5.75;;
75971;SDS011;64651;47.540;19.088;2023-03-01T15:06:54;11.18;;;5.10;;
75971;SDS011;64651;47.540;19.088;2023-03-01T15:11:57;10.80;;;5.23;;
75971;SDS011;64651;47.540;19.088;2023-03-01T15:16:59;9.90;;;4.68;;
75971;SDS011;64651;47.540;19.088;2023-03-01T15:22:02;12.77;;;5.50;;
75971;SDS011;64651;47.540;19.088;2023-03-01T15:27:14;9.32;;;4.70;;
75971;SDS011;64651;47.540;19.088;2023-03-01T15:32:30;11.77;;;5.87;;
75971;SDS011;64651;47.540;19.088;2023-03-01T15:37:46;11.23;;;4.37;;
75971;SDS011;64651;47.540;19.088;2023-03-01T15:42:50;11.95;;;4.22;;
75971;SDS011;64651;47.540;19.088;2023-03-01T15:47:57;10.80;;;4.00;;
75971;SDS011;64651;47.540;19.088;2023-03-01T15:53:10;9.52;;;4.10;;
75971;SDS011;64651;47.540;19.088;2023-03-01T15:58:18;11.35;;;4.22;;
75971;SDS011;64651;47.540;19.088;2023-03-01T16:03:22;9.73;;;4.50;;
75971;SDS011;64651;47.540;19.088;2023-03-01T16:08:24;12.93;;;4.62;;
75971;SDS011;64651;47.540;19.088;2023-03-01T16:13:27;11.73;;;4.47;;
75971;SDS011;64651;47.540;19.088;2023-03-01T16:18:30;14.48;;;4.00;;
75971;SDS011;64651;47.540;19.088;2023-03-01T16:23:32;20.88;;;5.05;;
75971;SDS011;64651;47.540;19.088;2023-03-01T16:28:34;13.20;;;4.23;;
75971;SDS011;64651;47.540;19.088;2023-03-01T16:33:37;12.52;;;4.62;;
75971;SDS011;64651;47.540;19.088;2023-03-01T16:38:39;12.40;;;4.60;;
75971;SDS011;64651;47.540;19.088;2023-03-01T16:43:41;17.80;;;5.30;;
75971;SDS011;64651;47.540;19.088;2023-03-01T16:48:44;14.30;;;4.37;;
75971;SDS011;64651;47.540;19.088;2023-03-01T16:53:48;15.30;;;5.53;;
75971;SDS011;64651;47.540;19.088;2023-03-01T16:58:51;13.55;;;4.93;;
75971;SDS011;64651;47.540;19.088;2023-03-01T17:03:53;15.00;;;5.20;;
75971;SDS011;64651;47.540;19.088;2023-03-01T17:08:56;14.43;;;4.97;;
75971;SDS011;64651;47.540;19.088;2023-03-01T17:13:58;16.40;;;5.37;;
75971;SDS011;64651;47.540;19.088;2023-03-01T17:19:00;17.23;;;6.13;;
75971;SDS011;64651;47.540;19.088;2023-03-01T17:24:03;15.00;;;6.30;;
75971;SDS011;64651;47.540;19.088;2023-03-01T17:29:06;20.17;;;6.30;;
75971;SDS011;64651;47.540;19.088;2023-03-01T17:34:08;15.20;;;5.78;;
75971;SDS011;64651;47.540;19.088;2023-03-01T17:39:10;23.42;;;6.62;;
75971;SDS011;64651;47.540;19.088;2023-03-01T17:44:13;15.33;;;5.97;;
75971;SDS011;64651;47.540;19.088;2023-03-01T17:49:15;20.62;;;7.82;;
75971;SDS011;64651;47.540;19.088;2023-03-01T17:54:18;15.63;;;6.13;;
75971;SDS011;64651;47.540;19.088;2023-03-01T17:59:21;17.52;;;5.95;;
75971;SDS011;64651;47.540;19.088;2023-03-01T18:04:23;17.87;;;6.05;;
75971;SDS011;64651;47.540;19.088;2023-03-01T18:09:26;20.93;;;6.93;;
75971;SDS011;64651;47.540;19.088;2023-03-01T18:14:28;14.65;;;6.10;;
75971;SDS011;64651;47.540;19.088;2023-03-01T18:19:34;17.20;;;6.83;;
75971;SDS011;64651;47.540;19.088;2023-03-01T18:24:37;19.25;;;7.03;;
75971;SDS011;64651;47.540;19.088;2023-03-01T18:29:39;19.37;;;7.95;;
75971;SDS011;64651;47.540;19.088;2023-03-01T18:34:42;18.13;;;7.53;;
75971;SDS011;64651;47.540;19.088;2023-03-01T18:39:44;17.45;;;7.90;;
75971;SDS011;64651;47.540;19.088;2023-03-01T18:44:46;18.70;;;8.07;;
75971;SDS011;64651;47.540;19.088;2023-03-01T18:49:49;18.23;;;7.57;;
75971;SDS011;64651;47.540;19.088;2023-03-01T18:54:51;17.95;;;7.62;;
75971;SDS011;64651;47.540;19.088;2023-03-01T18:59:55;20.27;;;8.47;;
75971;SDS011;64651;47.540;19.088;2023-03-01T19:04:58;18.67;;;8.05;;
75971;SDS011;64651;47.540;19.088;2023-03-01T19:10:00;21.00;;;8.03;;
75971;SDS011;64651;47.540;19.088;2023-03-01T19:15:03;21.15;;;8.50;;
75971;SDS011;64651;47.540;19.088;2023-03-01T19:20:06;20.55;;;8.52;;
75971;SDS011;64651;47.540;19.088;2023-03-01T19:25:09;23.37;;;9.23;;
75971;SDS011;64651;47.540;19.088;2023-03-01T19:30:11;21.62;;;9.18;;
75971;SDS011;64651;47.540;19.088;2023-03-01T19:35:13;22.27;;;9.97;;
75971;SDS011;64651;47.540;19.088;2023-03-01T19:40:16;24.83;;;11.18;;
75971;SDS011;64651;47.540;19.088;2023-03-01T19:45:18;24.65;;;10.63;;
75971;SDS011;64651;47.540;19.088;2023-03-01T19:50:32;25.07;;;10.63;;
75971;SDS011;64651;47.540;19.088;2023-03-01T19:55:35;25.95;;;10.40;;
75971;SDS011;64651;47.540;19.088;2023-03-01T20:00:38;26.13;;;11.67;;
75971;SDS011;64651;47.540;19.088;2023-03-01T20:05:45;27.17;;;12.20;;
75971;SDS011;64651;47.540;19.088;2023-03-01T20:10:47;27.60;;;13.23;;
75971;SDS011;64651;47.540;19.088;2023-03-01T20:15:49;28.07;;;13.33;;
75971;SDS011;64651;47.540;19.088;2023-03-01T20:20:52;33.53;;;14.82;;
75971;SDS011;64651;47.540;19.088;2023-03-01T20:26:05;35.67;;;15.93;;
75971;SDS011;64651;47.540;19.088;2023-03-01T20:31:10;39.47;;;16.70;;
75971;SDS011;64651;47.540;19.088;2023-03-01T20:36:13;36.10;;;16.42;;
75971;SDS011;64651;47.540;19.088;2023-03-01T20:41:16;40.03;;;17.27;;
75971;SDS011;64651;47.540;19.088;2023-03-01T20:46:18;38.22;;;17.20;;
75971;SDS011;64651;47.540;19.088;2023-03-01T20:51:20;40.90;;;17.87;;
75971;SDS011;64651;47.540;19.088;2023-03-01T20:56:23;37.42;;;17.33;;
75971;SDS011;64651;47.540;19.088;2023-03-01T21:01:27;35.63;;;16.62;;
75971;SDS011;64651;47.540;19.088;2023-03-01T21:06:30;36.73;;;16.40;;
75971;SDS011;64651;47.540;19.088;2023-03-01T21:11:33;35.67;;;16.37;;
75971;SDS011;64651;47.540;19.088;2023-03-01T21:16:35;36.17;;;16.60;;
75971;SDS011;64651;47.540;19.088;2023-03-01T21:21:37;35.15;;;15.90;;
75971;SDS011;64651;47.540;19.088;2023-03-01T21:26:40;36.28;;;16.60;;
75971;SDS011;64651;47.540;19.088;2023-03-01T21:31:42;38.80;;;16.80;;
75971;SDS011;64651;47.540;19.088;2023-03-01T21:36:44;35.40;;;16.62;;
75971;SDS011;64651;47.540;19.088;2023-03-01T21:41:48;34.50;;;16.40;;
75971;SDS011;64651;47.540;19.088;2023-03-01T21:46:51;35.65;;;15.95;;
75971;SDS011;64651;47.540;19.088;2023-03-01T21:51:54;33.28;;;15.38;;
75971;SDS011;64651;47.540;19.088;2023-03-01T21:56:56;31.87;;;15.07;;
75971;SDS011;64651;47.540;19.088;2023-03-01T22:01:58;34.00;;;16.08;;
75971;SDS011;64651;47.540;19.088;2023-03-01T22:07:00;38.50;;;16.23;;
75971;SDS011;64651;47.540;19.088;2023-03-01T22:12:04;37.63;;;15.57;;
75971;SDS011;64651;47.540;19.088;2023-03-01T22:17:07;35.42;;;16.73;;
75971;SDS011;64651;47.540;19.088;2023-03-01T22:22:12;35.03;;;15.73;;
75971;SDS011;64651;47.540;19.088;2023-03-01T22:27:19;41.40;;;17.10;;
75971;SDS011;64651;47.540;19.088;2023-03-01T22:32:21;38.23;;;17.50;;
75971;SDS011;64651;47.540;19.088;2023-03-01T22:37:27;36.75;;;15.95;;
75971;SDS011;64651;47.540;19.088;2023-03-01T22:42:29;35.75;;;16.37;;
75971;SDS011;64651;47.540;19.088;2023-03-01T22:47:31;36.67;;;16.50;;
75971;SDS011;64651;47.540;19.088;2023-03-01T22:52:38;36.90;;;17.27;;
75971;SDS011;64651;47.540;19.088;2023-03-01T22:57:40;37.10;;;16.23;;
75971;SDS011;64651;47.540;19.088;2023-03-01T23:02:42;38.78;;;17.05;;
75971;SDS011;64651;47.540;19.088;2023-03-01T23:07:48;36.35;;;15.68;;
75971;SDS011;64651;47.540;19.088;2023-03-01T23:12:52;36.40;;;15.57;;
75971;SDS011;64651;47.540;19.088;2023-03-01T23:17:55;40.92;;;17.12;;
75971;SDS011;64651;47.540;19.088;2023-03-01T23:22:58;36.57;;;17.27;;
75971;SDS011;64651;47.540;19.088;2023-03-01T23:28:02;37.50;;;16.90;;
75971;SDS011;64651;47.540;19.088;2023-03-01T23:33:05;35.95;;;17.30;;
75971;SDS011;64651;47.540;19.088;2023-03-01T23:38:07;42.80;;;18.30;;
75971;SDS011;64651;47.540;19.088;2023-03-01T23:43:09;38.42;;;17.17;;
75971;SDS011;64651;47.540;19.088;2023-03-01T23:48:11;35.23;;;16.37;;
75971;SDS011;64651;47.540;19.088;2023-03-01T23:53:15;39.30;;;17.65;;
75971;SDS011;64651;47.540;19.088;2023-03-01T23:58:18;39.67;;;17.30;;
